Time;durP1;ratioP1;P1;durP2;ratioP2;P2;SDS_P1;SDS_P2;PMS_P1;PMS_P2;Temp;Humidity;BMP_temperature;BMP_pressure;BME280_temperature;BME280_humidity;BME280_pressure;Samples;Min_cycle;Max_cycle;Signal;HPM_P1;HPM_P2
2022/02/17 00:00:22;;;;;;;0.70;0.43;;;12.10;99.90;;;;;;5037819;28;20220;-89
2022/02/17 00:02:50;;;;;;;0.95;0.50;;;12.10;99.90;;;;;;5020092;28;20183;-89
2022/02/17 00:05:17;;;;;;;1.50;0.40;;;12.10;99.90;;;;;;5037394;28;20171;-89
2022/02/17 00:07:42;;;;;;;1.30;0.50;;;12.10;99.90;;;;;;5031048;28;20636;-90
2022/02/17 00:10:09;;;;;;;2.55;0.40;;;12.00;99.90;;;;;;5000186;28;20183;-89
2022/02/17 00:12:35;;;;;;;1.88;0.73;;;12.00;99.90;;;;;;5000148;28;20240;-91
2022/02/17 00:15:02;;;;;;;2.50;0.95;;;11.90;99.90;;;;;;5034235;28;20237;-91
2022/02/17 00:17:28;;;;;;;6.55;1.20;;;10.90;99.90;;;;;;5001016;28;20195;-93
2022/02/17 00:19:53;;;;;;;3.40;1.00;;;10.20;99.90;;;;;;5001255;28;20688;-94
2022/02/17 00:22:19;;;;;;;4.40;0.80;;;9.80;99.90;;;;;;5000879;28;20183;-92
2022/02/17 00:24:45;;;;;;;3.83;0.90;;;9.50;99.90;;;;;;5002553;28;20180;-95
2022/02/17 00:27:11;;;;;;;5.90;1.10;;;9.30;99.90;;;;;;5002006;28;20206;-96
2022/02/17 00:29:37;;;;;;;4.83;1.00;;;9.30;99.90;;;;;;5019188;28;20254;-94
2022/02/17 00:32:03;;;;;;;3.57;1.00;;;9.20;99.90;;;;;;5002107;28;20210;-93
2022/02/17 00:34:29;;;;;;;6.97;1.13;;;9.20;99.90;;;;;;5018390;28;20172;-94
2022/02/17 00:36:54;;;;;;;3.80;1.30;;;9.20;99.90;;;;;;5017136;28;20214;-96
2022/02/17 00:39:20;;;;;;;4.70;1.20;;;9.10;99.90;;;;;;5018299;28;20186;-93
2022/02/17 00:41:46;;;;;;;7.73;1.67;;;9.20;99.90;;;;;;5456851;23;20453;-96
2022/02/17 00:44:15;;;;;;;9.13;1.30;;;9.30;99.90;;;;;;5078462;28;20227;-92
2022/02/17 00:46:41;;;;;;;3.57;1.10;;;9.40;99.90;;;;;;5060229;28;20211;-94
2022/02/17 00:49:07;;;;;;;9.00;1.80;;;9.60;99.90;;;;;;5077496;28;20177;-95
2022/02/17 00:51:33;;;;;;;5.53;1.00;;;9.60;99.90;;;;;;5059528;28;20185;-95
2022/02/17 00:53:59;;;;;;;5.40;1.17;;;9.60;99.90;;;;;;5059070;28;20177;-95
2022/02/17 00:56:25;;;;;;;5.83;1.00;;;9.60;99.90;;;;;;5059365;28;20215;-95
2022/02/17 00:58:51;;;;;;;7.37;1.43;;;9.70;99.90;;;;;;5058975;28;20177;-93
2022/02/17 01:01:16;;;;;;;2.70;1.20;;;9.80;99.90;;;;;;5057883;28;20185;-93
2022/02/17 01:03:43;;;;;;;3.20;0.80;;;9.90;99.90;;;;;;5076542;28;20203;-92
2022/02/17 01:06:09;;;;;;;4.43;1.10;;;9.80;99.90;;;;;;5058837;28;20177;-95
2022/02/17 01:08:35;;;;;;;6.17;1.33;;;9.90;99.90;;;;;;5058285;28;20188;-92
2022/02/17 01:11:01;;;;;;;3.92;1.15;;;9.90;99.90;;;;;;5058662;28;20674;-93
2022/02/17 01:13:27;;;;;;;5.23;1.00;;;9.90;99.90;;;;;;5059052;28;20208;-93
2022/02/17 01:15:53;;;;;;;8.10;1.80;;;10.00;99.90;;;;;;5058539;28;20655;-93
2022/02/17 01:18:18;;;;;;;7.23;1.53;;;10.10;99.90;;;;;;5076233;28;20283;-91
2022/02/17 01:20:46;;;;;;;3.58;1.08;;;10.10;99.90;;;;;;5076397;28;20220;-92
2022/02/17 01:23:13;;;;;;;5.17;1.00;;;10.20;99.90;;;;;;5058496;28;20177;-93
2022/02/17 01:25:39;;;;;;;6.47;1.27;;;10.20;99.90;;;;;;5058434;28;20169;-93
2022/02/17 01:28:05;;;;;;;5.20;1.30;;;10.20;99.90;;;;;;5058391;28;20181;-95
2022/02/17 01:30:31;;;;;;;7.23;1.10;;;10.00;99.90;;;;;;5076830;28;20177;-93
2022/02/17 01:32:56;;;;;;;5.47;1.10;;;9.90;99.90;;;;;;5076322;28;20620;-93
2022/02/17 01:35:22;;;;;;;4.53;1.02;;;9.90;99.90;;;;;;5058311;28;20266;-92
2022/02/17 01:37:48;;;;;;;2.70;0.85;;;9.90;99.90;;;;;;5058185;28;20228;-94
2022/02/17 01:40:14;;;;;;;7.43;1.20;;;9.80;99.90;;;;;;5058247;28;20173;-93
2022/02/17 01:42:41;;;;;;;4.22;1.30;;;9.90;99.90;;;;;;5057900;28;20235;-92
2022/02/17 01:45:08;;;;;;;4.20;0.88;;;9.90;99.90;;;;;;5075785;28;20165;-92
2022/02/17 01:47:34;;;;;;;7.30;1.73;;;10.00;99.90;;;;;;5057743;28;20642;-93
2022/02/17 01:50:00;;;;;;;5.20;1.35;;;9.90;99.90;;;;;;5075732;28;20176;-91
2022/02/17 01:52:26;;;;;;;6.47;1.50;;;9.70;99.90;;;;;;5057537;28;20188;-92
2022/02/17 01:54:52;;;;;;;6.10;1.20;;;9.70;99.90;;;;;;5057636;28;20180;-91
2022/02/17 01:57:28;;;;;;;4.93;1.67;;;9.80;99.90;;;;;;5057523;28;20212;-92
2022/02/17 01:59:55;;;;;;;4.17;1.20;;;9.70;99.90;;;;;;5075405;28;20542;-92
2022/02/17 02:02:21;;;;;;;4.78;0.95;;;9.80;99.90;;;;;;5057449;28;20215;-92
2022/02/17 02:04:47;;;;;;;6.13;1.35;;;9.70;99.90;;;;;;5057664;28;20183;-90
2022/02/17 02:07:13;;;;;;;7.63;1.60;;;9.80;99.90;;;;;;5057342;28;20180;-92
2022/02/17 02:09:40;;;;;;;6.70;1.70;;;9.90;99.90;;;;;;5075199;28;20201;-95
2022/02/17 02:12:07;;;;;;;8.00;1.60;;;9.90;99.90;;;;;;5057235;28;20184;-93
2022/02/17 02:14:33;;;;;;;8.85;1.50;;;9.90;99.90;;;;;;5056999;28;20177;-92
2022/02/17 02:16:59;;;;;;;13.05;1.98;;;10.00;99.90;;;;;;5057281;28;20205;-90
2022/02/17 02:19:25;;;;;;;17.58;2.22;;;10.00;99.90;;;;;;5075321;28;20173;-92
2022/02/17 02:21:51;;;;;;;7.55;1.70;;;10.10;99.90;;;;;;5057451;28;20264;-93
2022/02/17 02:24:17;;;;;;;9.10;1.80;;;10.30;99.90;;;;;;5057107;28;20227;-91
2022/02/17 02:26:43;;;;;;;8.55;1.77;;;10.40;99.90;;;;;;5075032;28;20495;-92
2022/02/17 02:29:08;;;;;;;9.20;1.67;;;10.50;99.90;;;;;;5074975;28;20177;-91
2022/02/17 02:31:34;;;;;;;6.35;1.83;;;10.50;99.90;;;;;;5075042;28;20188;-91
2022/02/17 02:34:00;;;;;;;7.80;1.60;;;10.40;99.90;;;;;;5057244;28;20594;-94
2022/02/17 02:36:25;;;;;;;11.48;2.72;;;10.40;99.90;;;;;;5057080;28;20209;-90
2022/02/17 02:38:52;;;;;;;11.57;2.28;;;10.50;99.90;;;;;;5074695;28;20212;-92
2022/02/17 02:41:18;;;;;;;11.20;2.25;;;10.50;99.90;;;;;;5056903;28;20321;-92
2022/02/17 02:43:44;;;;;;;9.73;2.70;;;10.60;99.90;;;;;;5074908;28;20173;-91
2022/02/17 02:46:10;;;;;;;7.85;1.70;;;10.50;99.90;;;;;;5057384;28;20177;-91
2022/02/17 02:48:35;;;;;;;9.60;1.85;;;10.40;99.90;;;;;;5075086;28;20173;-90
2022/02/17 02:51:01;;;;;;;8.98;2.10;;;10.40;99.90;;;;;;5057213;28;20185;-91
2022/02/17 02:53:27;;;;;;;10.30;2.10;;;10.50;99.90;;;;;;5057006;28;20173;-93
2022/02/17 02:55:52;;;;;;;10.18;2.15;;;10.50;99.90;;;;;;5056964;28;20201;-91
2022/02/17 02:58:19;;;;;;;11.93;2.00;;;10.50;99.90;;;;;;5057338;28;20169;-92
2022/02/17 03:00:48;;;;;;;8.35;1.67;;;10.30;99.90;;;;;;5074820;28;20181;-94
2022/02/17 03:03:15;;;;;;;7.78;1.70;;;10.30;99.90;;;;;;5056820;28;20179;-90
2022/02/17 03:05:40;;;;;;;7.78;1.70;;;10.30;99.90;;;;;;5056779;28;20223;-90
2022/02/17 03:08:07;;;;;;;10.38;2.42;;;10.30;99.90;;;;;;5047072;28;20624;-93
2022/02/17 03:10:33;;;;;;;11.65;2.03;;;10.40;99.90;;;;;;5036687;28;20178;-91
2022/02/17 03:13:00;;;;;;;7.55;1.95;;;10.40;99.90;;;;;;5036968;28;20232;-91
2022/02/17 03:15:27;;;;;;;7.35;1.73;;;10.30;99.90;;;;;;5037044;28;20241;-91
2022/02/17 03:17:53;;;;;;;10.95;2.40;;;10.10;99.90;;;;;;5054543;28;20177;-89
2022/02/17 03:20:20;;;;;;;8.00;1.67;;;9.90;99.90;;;;;;5037118;28;20174;-90
2022/02/17 03:22:46;;;;;;;9.03;1.80;;;9.90;99.90;;;;;;5028177;28;20208;-92
2022/02/17 03:25:15;;;;;;;7.27;1.20;;;9.70;99.90;;;;;;5038041;28;20170;-93
2022/02/17 03:27:40;;;;;;;6.63;1.23;;;9.40;99.90;;;;;;5040574;28;20205;-92
2022/02/17 03:30:09;;;;;;;5.47;1.30;;;9.30;99.90;;;;;;5058341;28;20367;-93
2022/02/17 03:32:35;;;;;;;4.40;1.30;;;9.10;99.90;;;;;;5041278;28;20513;-94
2022/02/17 03:35:02;;;;;;;4.43;1.13;;;8.90;99.90;;;;;;5040922;28;20178;-94
2022/02/17 03:37:28;;;;;;;5.70;1.37;;;8.70;99.90;;;;;;5058678;28;20197;-93
2022/02/17 03:39:54;;;;;;;6.13;1.20;;;8.70;99.90;;;;;;5040749;28;20174;-93
2022/02/17 03:42:19;;;;;;;4.50;1.27;;;8.60;99.90;;;;;;5041027;28;20324;-93
2022/02/17 03:44:45;;;;;;;4.00;1.10;;;8.60;99.90;;;;;;5040828;28;20312;-93
2022/02/17 03:47:11;;;;;;;4.07;1.20;;;8.60;99.90;;;;;;5057858;28;20158;-94
2022/02/17 03:49:38;;;;;;;5.27;1.20;;;8.60;99.90;;;;;;5057917;28;20205;-91
2022/02/17 03:52:04;;;;;;;7.43;1.53;;;8.70;99.90;;;;;;5040461;28;20174;-95
2022/02/17 03:54:30;;;;;;;8.30;1.87;;;8.80;99.90;;;;;;5040165;28;20255;-90
2022/02/17 03:56:56;;;;;;;14.67;1.83;;;8.90;99.90;;;;;;5040153;28;20317;-92
2022/02/17 03:59:21;;;;;;;9.33;1.70;;;9.20;99.90;;;;;;5041173;28;20583;-92
2022/02/17 04:01:47;;;;;;;8.17;1.73;;;9.20;99.90;;;;;;5040921;28;20200;-94
2022/02/17 04:04:13;;;;;;;12.80;1.80;;;9.10;99.90;;;;;;5040163;28;20185;-92
2022/02/17 04:06:39;;;;;;;9.57;2.10;;;9.10;99.90;;;;;;5039399;28;20208;-91
2022/02/17 04:09:06;;;;;;;8.33;2.03;;;9.10;99.90;;;;;;5057224;28;20185;-94
2022/02/17 04:11:32;;;;;;;11.27;2.00;;;9.10;99.90;;;;;;5059558;28;20273;-93
2022/02/17 04:13:58;;;;;;;10.70;2.27;;;9.10;99.90;;;;;;5059679;28;20264;-93
2022/02/17 04:16:24;;;;;;;9.23;2.10;;;9.20;99.90;;;;;;5077216;28;20240;-92
2022/02/17 04:18:50;;;;;;;12.50;2.37;;;9.00;99.90;;;;;;5059541;28;20169;-94
2022/02/17 04:21:17;;;;;;;12.87;2.43;;;9.00;99.90;;;;;;5059273;28;20177;-92
2022/02/17 04:23:46;;;;;;;11.23;2.20;;;8.90;99.90;;;;;;5059404;28;20174;-92
2022/02/17 04:26:14;;;;;;;8.80;1.90;;;8.90;99.90;;;;;;5077337;28;20169;-93
2022/02/17 04:28:42;;;;;;;10.50;1.97;;;8.80;99.90;;;;;;5059205;28;20180;-90
2022/02/17 04:31:08;;;;;;;10.83;2.20;;;8.90;99.90;;;;;;5077148;28;20181;-92
2022/02/17 04:33:34;;;;;;;14.63;2.67;;;8.80;99.90;;;;;;5077106;28;20169;-92
2022/02/17 04:36:00;;;;;;;15.60;2.30;;;8.80;99.90;;;;;;5076416;28;20201;-93
2022/02/17 04:38:26;;;;;;;10.97;2.77;;;8.80;99.90;;;;;;5076860;28;20177;-93
2022/02/17 04:43:36;;;;;;;10.80;2.10;;;8.90;99.90;;;;;;5077295;28;20165;-91
2022/02/17 04:46:02;;;;;;;11.00;2.23;;;9.00;99.90;;;;;;5059441;28;20169;-93
2022/02/17 04:48:28;;;;;;;7.93;2.17;;;9.10;99.90;;;;;;5059106;28;20263;-95
2022/02/17 04:50:54;;;;;;;8.40;1.93;;;9.10;99.90;;;;;;5059247;28;20212;-93
2022/02/17 04:53:20;;;;;;;12.33;2.20;;;9.00;99.90;;;;;;5076785;28;20231;-92
2022/02/17 04:55:46;;;;;;;10.43;2.47;;;9.00;99.90;;;;;;5058891;28;20213;-94
2022/02/17 04:58:12;;;;;;;10.10;1.97;;;9.10;99.90;;;;;;5058957;28;20260;-93
2022/02/17 05:00:38;;;;;;;8.17;1.73;;;9.10;99.90;;;;;;5076669;28;20607;-90
2022/02/17 05:03:04;;;;;;;12.77;2.40;;;9.10;99.90;;;;;;5058743;28;20177;-94
2022/02/17 05:05:30;;;;;;;11.00;1.90;;;9.20;99.90;;;;;;5076379;28;20253;-94
2022/02/17 05:07:55;;;;;;;9.37;2.10;;;9.10;99.90;;;;;;5058361;28;20232;-92
2022/02/17 05:10:21;;;;;;;14.83;2.53;;;9.00;99.90;;;;;;5076358;28;20176;-92
2022/02/17 05:12:47;;;;;;;10.17;2.20;;;9.10;99.90;;;;;;5058567;28;20177;-94
2022/02/17 05:15:13;;;;;;;11.97;2.30;;;9.00;99.90;;;;;;5075994;28;20248;-94
2022/02/17 05:17:38;;;;;;;8.83;1.97;;;9.10;99.90;;;;;;5058282;28;20235;-93
2022/02/17 05:20:05;;;;;;;12.63;2.50;;;9.30;99.90;;;;;;5058650;28;20170;-95
2022/02/17 05:22:32;;;;;;;14.73;2.27;;;9.20;99.90;;;;;;5076381;28;20257;-95
2022/02/17 05:24:58;;;;;;;14.13;2.63;;;9.10;99.90;;;;;;5075796;28;20199;-94
2022/02/17 05:27:24;;;;;;;13.53;2.20;;;9.10;99.90;;;;;;5058369;28;20161;-91
2022/02/17 05:29:50;;;;;;;11.30;2.70;;;9.20;99.90;;;;;;5075963;28;20169;-91
2022/02/17 05:32:15;;;;;;;9.17;2.57;;;9.10;99.90;;;;;;5075773;28;20196;-92
2022/02/17 05:34:41;;;;;;;9.73;2.43;;;9.00;99.90;;;;;;5075953;28;20242;-91
2022/02/17 05:37:07;;;;;;;10.83;2.77;;;9.00;99.90;;;;;;5057710;28;20213;-93
2022/02/17 05:39:35;;;;;;;10.77;2.17;;;8.80;99.90;;;;;;5057862;28;20177;-92
2022/02/17 05:42:00;;;;;;;12.27;2.70;;;8.90;99.90;;;;;;5075601;28;20279;-91
2022/02/17 05:44:26;;;;;;;13.50;2.90;;;8.90;99.90;;;;;;5075601;28;20173;-93
2022/02/17 05:46:52;;;;;;;11.10;2.63;;;8.90;99.90;;;;;;5075203;28;20172;-92
2022/02/17 05:49:17;;;;;;;10.40;2.33;;;9.00;99.90;;;;;;5075215;28;20177;-92
2022/02/17 05:51:43;;;;;;;11.37;2.10;;;9.00;99.90;;;;;;5075548;28;20177;-92
2022/02/17 05:54:08;;;;;;;11.10;2.30;;;9.10;99.90;;;;;;5075322;28;20188;-93
2022/02/17 05:56:34;;;;;;;12.30;2.13;;;9.10;99.90;;;;;;5075373;28;20205;-90
2022/02/17 05:59:00;;;;;;;13.57;2.23;;;9.10;99.90;;;;;;5075392;28;20170;-92
2022/02/17 06:01:25;;;;;;;7.93;1.90;;;9.00;99.90;;;;;;5057375;28;20183;-93
2022/02/17 06:03:51;;;;;;;9.00;2.50;;;8.90;99.90;;;;;;5075805;28;20248;-94
2022/02/17 06:06:17;;;;;;;12.70;2.70;;;8.80;99.90;;;;;;5075521;28;20215;-91
2022/02/17 06:08:42;;;;;;;12.93;2.30;;;9.00;99.90;;;;;;5057176;28;20177;-90
2022/02/17 06:11:08;;;;;;;12.53;2.47;;;8.90;99.90;;;;;;5057621;28;20185;-91
2022/02/17 06:13:34;;;;;;;15.37;2.33;;;9.00;99.90;;;;;;5075228;28;20260;-93
2022/02/17 06:15:59;;;;;;;14.63;3.00;;;9.00;99.90;;;;;;5075061;28;20540;-91
2022/02/17 06:18:25;;;;;;;9.03;2.13;;;8.90;99.90;;;;;;5075230;28;20173;-90
2022/02/17 06:20:51;;;;;;;8.17;2.60;;;8.90;99.90;;;;;;5057242;28;20235;-93
2022/02/17 06:23:17;;;;;;;15.37;3.43;;;8.90;99.90;;;;;;5057095;28;20185;-91
2022/02/17 06:25:42;;;;;;;12.50;2.13;;;9.00;99.90;;;;;;5075118;28;20184;-93
2022/02/17 06:28:08;;;;;;;16.63;2.70;;;8.90;99.90;;;;;;5057593;28;20172;-89
2022/02/17 06:30:34;;;;;;;14.37;2.50;;;8.90;99.90;;;;;;5057515;28;20208;-92
2022/02/17 06:32:59;;;;;;;10.23;2.43;;;8.80;99.90;;;;;;5057274;28;20218;-94
2022/02/17 06:35:29;;;;;;;16.27;2.53;;;8.80;99.90;;;;;;5057159;28;20200;-91
2022/02/17 06:37:55;;;;;;;14.03;2.53;;;8.60;99.90;;;;;;5057148;28;20268;-91
2022/02/17 06:40:22;;;;;;;9.27;2.03;;;8.80;99.90;;;;;;5075508;28;20607;-90
2022/02/17 06:42:48;;;;;;;11.87;1.80;;;8.80;99.90;;;;;;5057158;28;20239;-91
2022/02/17 06:45:14;;;;;;;12.90;2.50;;;8.90;99.90;;;;;;5074982;28;20252;-92
2022/02/17 06:47:40;;;;;;;11.77;2.37;;;8.90;99.90;;;;;;5055072;28;20695;-93
2022/02/17 06:50:07;;;;;;;10.73;2.00;;;8.90;99.90;;;;;;5049807;28;20201;-88
2022/02/17 06:52:34;;;;;;;6.37;1.83;;;8.80;99.90;;;;;;5037049;28;20186;-90
2022/02/17 06:55:00;;;;;;;11.80;2.00;;;8.70;99.90;;;;;;5068291;28;20617;-86
2022/02/17 06:57:26;;;;;;;8.50;2.10;;;8.80;99.90;;;;;;5074565;28;20201;-89
2022/02/17 06:59:52;;;;;;;10.87;2.30;;;8.90;99.90;;;;;;5059204;28;20616;-90
2022/02/17 07:02:26;;;;;;;10.43;2.13;;;8.90;99.90;;;;;;5078701;28;20178;-88
2022/02/17 07:04:53;;;;;;;11.87;2.33;;;8.80;99.90;;;;;;5061179;28;20177;-93
2022/02/17 07:07:19;;;;;;;13.30;2.07;;;8.80;99.90;;;;;;5061023;28;20513;-88
2022/02/17 07:09:46;;;;;;;8.50;1.97;;;8.80;99.90;;;;;;5078546;28;20169;-93
2022/02/17 07:12:14;;;;;;;7.13;1.90;;;8.80;99.90;;;;;;5060868;28;20258;-92
2022/02/17 07:14:40;;;;;;;9.10;2.30;;;8.80;99.90;;;;;;5060731;28;20620;-93
2022/02/17 07:17:06;;;;;;;6.60;1.83;;;8.80;99.90;;;;;;5060766;28;20315;-93
2022/02/17 07:19:32;;;;;;;8.83;2.03;;;8.80;99.90;;;;;;5078451;28;20578;-91
2022/02/17 07:21:58;;;;;;;9.47;1.83;;;8.80;99.90;;;;;;5060865;28;20187;-92
2022/02/17 07:24:24;;;;;;;9.10;2.30;;;8.80;99.90;;;;;;5060193;28;20178;-88
2022/02/17 07:26:50;;;;;;;9.00;2.23;;;9.00;99.90;;;;;;5078035;28;20177;-90
2022/02/17 07:29:17;;;;;;;10.77;2.47;;;9.00;99.90;;;;;;5060598;28;20187;-90
2022/02/17 07:31:43;;;;;;;9.00;1.80;;;9.00;99.90;;;;;;5060435;28;20556;-88
2022/02/17 07:34:09;;;;;;;9.17;1.77;;;8.90;99.90;;;;;;5078149;28;20177;-90
2022/02/17 07:36:36;;;;;;;16.70;2.50;;;8.90;99.90;;;;;;5077865;28;20640;-91
2022/02/17 07:39:04;;;;;;;9.53;2.20;;;8.90;99.90;;;;;;5077688;28;20177;-90
2022/02/17 07:41:31;;;;;;;8.33;1.90;;;8.80;99.90;;;;;;5077853;28;20251;-91
2022/02/17 07:43:57;;;;;;;10.53;2.07;;;8.90;99.90;;;;;;5078080;28;20177;-92
2022/02/17 07:46:23;;;;;;;10.57;2.23;;;8.90;99.90;;;;;;5060152;28;20185;-90
2022/02/17 07:48:54;;;;;;;10.63;1.93;;;8.90;99.90;;;;;;5078031;28;20227;-92
2022/02/17 07:51:20;;;;;;;10.90;1.97;;;8.90;99.90;;;;;;5060108;28;20212;-91
2022/02/17 07:53:45;;;;;;;10.00;1.67;;;8.80;99.90;;;;;;5059797;28;20607;-88
2022/02/17 07:56:11;;;;;;;12.47;1.93;;;8.80;99.90;;;;;;5077536;28;20202;-92
2022/02/17 07:58:37;;;;;;;8.53;2.30;;;8.80;99.90;;;;;;5060121;28;20185;-89
2022/02/17 08:01:04;;;;;;;11.00;2.47;;;8.80;99.90;;;;;;5077552;28;20175;-93
2022/02/17 08:03:33;;;;;;;8.97;1.90;;;8.80;99.90;;;;;;5059932;28;20181;-91
2022/02/17 08:05:59;;;;;;;9.60;2.00;;;8.70;99.90;;;;;;5077646;28;20482;-92
2022/02/17 08:08:25;;;;;;;8.70;1.80;;;8.80;99.90;;;;;;5059388;28;20568;-90
2022/02/17 08:10:51;;;;;;;7.80;1.97;;;8.90;99.90;;;;;;5059282;28;20307;-93
2022/02/17 08:13:18;;;;;;;8.63;1.80;;;8.90;99.90;;;;;;5059650;28;20518;-91
2022/02/17 08:15:44;;;;;;;10.57;2.47;;;8.90;99.90;;;;;;5077426;28;20196;-92
2022/02/17 08:18:10;;;;;;;9.13;1.80;;;8.90;99.90;;;;;;5060165;28;20226;-90
2022/02/17 08:20:36;;;;;;;8.93;1.60;;;8.90;99.90;;;;;;5058369;28;20267;-92
2022/02/17 08:23:02;;;;;;;10.13;2.03;;;8.90;99.90;;;;;;5059431;28;20169;-90
2022/02/17 08:25:27;;;;;;;12.77;2.13;;;8.80;99.90;;;;;;5075816;28;20184;-91
2022/02/17 08:27:53;;;;;;;13.70;2.47;;;8.80;99.90;;;;;;5078032;28;20661;-91
2022/02/17 08:30:20;;;;;;;10.50;2.47;;;8.90;99.90;;;;;;5076472;28;20184;-92
2022/02/17 08:32:46;;;;;;;8.33;2.00;;;9.10;99.90;;;;;;5059185;28;20173;-92
2022/02/17 08:35:12;;;;;;;13.23;2.40;;;9.10;99.90;;;;;;5076447;28;20173;-87
2022/02/17 08:37:40;;;;;;;12.47;2.37;;;9.10;99.90;;;;;;5076381;28;20590;-93
2022/02/17 08:40:07;;;;;;;9.00;1.87;;;8.90;99.90;;;;;;5076707;28;20608;-87
2022/02/17 08:42:34;;;;;;;8.47;2.00;;;9.00;99.90;;;;;;5058663;28;20228;-89
2022/02/17 08:44:59;;;;;;;8.70;2.07;;;9.00;99.90;;;;;;5076657;28;20169;-89
2022/02/17 08:47:25;;;;;;;19.13;2.17;;;8.90;99.90;;;;;;5058152;28;20230;-88
2022/02/17 08:49:51;;;;;;;10.77;2.13;;;8.80;99.90;;;;;;5058652;28;20173;-91
2022/02/17 08:52:19;;;;;;;12.67;1.90;;;8.90;99.90;;;;;;5055429;28;20181;-91
2022/02/17 08:54:45;;;;;;;14.57;2.23;;;8.80;99.90;;;;;;5058682;28;20173;-89
2022/02/17 08:57:11;;;;;;;11.20;1.90;;;8.90;99.90;;;;;;5076834;28;20200;-93
2022/02/17 08:59:37;;;;;;;11.23;2.13;;;8.90;99.90;;;;;;5059295;28;20230;-91
2022/02/17 09:02:03;;;;;;;7.40;1.60;;;8.80;99.90;;;;;;5058784;28;20607;-91
2022/02/17 09:04:32;;;;;;;7.00;1.80;;;8.90;99.90;;;;;;5076622;28;20279;-90
2022/02/17 09:07:00;;;;;;;12.10;2.37;;;8.80;99.90;;;;;;5058748;28;20184;-91
2022/02/17 09:09:27;;;;;;;10.33;1.97;;;8.90;99.90;;;;;;5058267;28;20209;-90
2022/02/17 09:11:53;;;;;;;12.50;2.03;;;8.90;99.90;;;;;;5058547;28;20177;-84
2022/02/17 09:14:19;;;;;;;11.67;2.30;;;8.90;99.90;;;;;;5058445;28;20247;-91
2022/02/17 09:16:45;;;;;;;11.73;1.90;;;8.90;99.90;;;;;;5075802;28;20205;-85
2022/02/17 09:19:11;;;;;;;14.57;2.27;;;8.90;99.90;;;;;;5075911;28;20169;-91
2022/02/17 09:21:37;;;;;;;12.70;2.40;;;8.90;99.90;;;;;;5075639;28;20199;-87
2022/02/17 09:24:03;;;;;;;11.83;2.13;;;8.90;99.90;;;;;;5057381;28;20188;-94
2022/02/17 09:26:29;;;;;;;9.50;2.07;;;8.90;99.90;;;;;;5075984;28;20628;-94
2022/02/17 09:28:56;;;;;;;10.17;2.70;;;8.80;99.90;;;;;;5058997;28;20254;-93
2022/02/17 09:31:23;;;;;;;10.07;2.20;;;8.80;99.90;;;;;;5076344;28;20177;-94
2022/02/17 09:33:55;;;;;;;10.03;2.07;;;8.90;99.90;;;;;;5076483;28;20180;-92
2022/02/17 09:36:22;;;;;;;10.23;1.87;;;8.90;99.90;;;;;;5058770;28;20213;-95
2022/02/17 09:38:48;;;;;;;10.57;2.23;;;8.90;99.90;;;;;;5076385;28;20248;-94
2022/02/17 09:41:16;;;;;;;9.37;1.97;;;9.00;99.90;;;;;;5058633;28;20237;-93
2022/02/17 09:43:44;;;;;;;10.73;2.27;;;9.10;99.90;;;;;;5076338;28;20162;-93
2022/02/17 09:46:17;;;;;;;11.40;1.73;;;9.20;99.90;;;;;;5058006;28;20177;-94
2022/02/17 09:48:44;;;;;;;14.17;2.17;;;9.20;99.90;;;;;;5075756;28;20158;-89
2022/02/17 09:51:10;;;;;;;12.27;2.03;;;9.30;99.90;;;;;;5057507;28;20173;-92
2022/02/17 09:53:37;;;;;;;10.50;1.73;;;9.40;99.90;;;;;;5058097;28;20177;-88
2022/02/17 09:56:05;;;;;;;14.93;2.43;;;9.50;99.90;;;;;;5075804;28;20625;-91
2022/02/17 09:58:31;;;;;;;10.77;1.97;;;9.40;99.90;;;;;;5057366;28;20204;-90
2022/02/17 10:00:56;;;;;;;10.40;1.63;;;9.30;99.90;;;;;;5057408;28;20200;-88
2022/02/17 10:03:29;;;;;;;6.97;1.77;;;9.40;99.90;;;;;;5057455;28;20178;-90
2022/02/17 10:06:11;;;;;;;8.53;1.57;;;9.40;99.90;;;;;;5075375;28;20161;-90
2022/02/17 10:08:39;;;;;;;5.90;1.50;;;9.40;99.90;;;;;;5074955;28;20172;-92
2022/02/17 10:11:06;;;;;;;10.23;2.47;;;9.40;99.90;;;;;;5057357;28;20200;-92
2022/02/17 10:13:32;;;;;;;12.93;1.90;;;9.40;99.90;;;;;;5075163;28;20254;-91
2022/02/17 10:15:59;;;;;;;5.83;1.50;;;9.40;99.90;;;;;;5075072;28;20212;-89
2022/02/17 10:18:30;;;;;;;8.87;1.63;;;9.50;99.90;;;;;;5075192;28;20256;-90
2022/02/17 10:21:02;;;;;;;6.27;1.50;;;9.40;99.90;;;;;;5075212;28;20160;-92
2022/02/17 10:23:41;;;;;;;11.33;2.20;;;9.20;99.90;;;;;;5057154;28;20177;-88
2022/02/17 10:26:08;;;;;;;6.33;1.50;;;9.20;99.90;;;;;;5057149;28;20311;-94
2022/02/17 10:28:42;;;;;;;13.73;2.60;;;9.10;99.90;;;;;;5057555;28;20184;-90
2022/02/17 10:31:25;;;;;;;7.80;1.87;;;8.70;99.90;;;;;;5075467;28;20253;-92
2022/02/17 10:33:53;;;;;;;9.87;1.43;;;8.60;99.90;;;;;;5056980;28;20179;-90
2022/02/17 10:36:40;;;;;;;12.40;1.97;;;8.50;99.90;;;;;;5074781;28;20208;-90
2022/02/17 10:39:22;;;;;;;4.83;1.23;;;8.40;99.90;;;;;;5056645;28;20177;-87
2022/02/17 10:41:50;;;;;;;8.90;1.70;;;8.60;99.90;;;;;;5056663;28;20232;-87
2022/02/17 10:44:18;;;;;;;11.07;1.83;;;8.70;99.90;;;;;;5056949;28;20188;-87
2022/02/17 10:46:43;;;;;;;8.60;1.83;;;8.80;99.90;;;;;;5074910;28;20254;-90
2022/02/17 10:49:15;;;;;;;7.83;2.47;;;9.00;99.90;;;;;;5057042;28;20217;-85
2022/02/17 10:51:41;;;;;;;9.07;1.83;;;9.00;99.90;;;;;;5074810;28;20665;-86
2022/02/17 10:54:07;;;;;;;10.50;2.20;;;9.20;99.90;;;;;;5074537;28;20272;-87
2022/02/17 10:56:34;;;;;;;14.33;2.10;;;9.10;99.90;;;;;;5075220;28;20295;-85
2022/02/17 10:59:05;;;;;;;9.37;1.73;;;9.00;99.90;;;;;;5056936;28;20562;-86
2022/02/17 11:01:31;;;;;;;7.63;2.03;;;9.00;99.90;;;;;;5074463;28;20603;-85
2022/02/17 11:03:58;;;;;;;11.10;2.07;;;9.00;99.90;;;;;;5056726;28;20181;-86
2022/02/17 11:06:24;;;;;;;6.97;1.53;;;9.20;99.90;;;;;;5074567;28;20173;-87
2022/02/17 11:08:51;;;;;;;11.03;2.23;;;9.20;99.90;;;;;;5056381;28;20508;-90
2022/02/17 11:11:21;;;;;;;8.37;1.70;;;9.10;99.90;;;;;;5075060;28;20474;-90
2022/02/17 11:13:52;;;;;;;17.50;2.30;;;9.20;99.90;;;;;;5057109;28;20170;-89
2022/02/17 11:16:24;;;;;;;10.87;2.20;;;9.10;99.90;;;;;;5056852;28;20216;-86
2022/02/17 11:18:52;;;;;;;12.53;2.10;;;8.90;99.90;;;;;;5074725;28;20174;-89
2022/02/17 11:21:18;;;;;;;10.20;1.87;;;8.90;99.90;;;;;;5056913;28;20600;-89
2022/02/17 11:23:45;;;;;;;12.87;2.17;;;8.70;99.90;;;;;;5074002;28;20174;-86
2022/02/17 11:26:30;;;;;;;13.20;2.50;;;8.60;99.90;;;;;;5056188;28;20327;-89
2022/02/17 11:29:16;;;;;;;11.80;2.07;;;8.60;99.90;;;;;;5056724;28;20215;-88
2022/02/17 11:32:02;;;;;;;9.57;2.23;;;8.60;99.90;;;;;;5060322;28;20193;-88
2022/02/17 11:34:41;;;;;;;10.47;2.10;;;8.60;99.90;;;;;;5074622;28;20589;-87
2022/02/17 11:37:41;;;;;;;14.47;2.10;;;8.60;99.90;;;;;;5056301;28;20205;-88
2022/02/17 11:40:15;;;;;;;9.83;2.37;;;8.50;99.90;;;;;;5056391;28;20173;-84
2022/02/17 11:42:47;;;;;;;11.83;2.03;;;8.40;99.90;;;;;;5056221;28;20256;-88
2022/02/17 11:45:20;;;;;;;10.93;1.87;;;7.70;99.90;;;;;;5074282;28;20636;-88
2022/02/17 11:48:05;;;;;;;14.67;2.60;;;7.30;99.90;;;;;;5059952;28;20691;-88
2022/02/17 11:50:43;;;;;;;9.87;2.23;;;7.10;99.90;;;;;;5060057;28;20166;-86
2022/02/17 11:53:28;;;;;;;10.33;1.67;;;6.90;99.90;;;;;;5059815;28;20177;-88
2022/02/17 11:56:17;;;;;;;9.80;1.70;;;6.60;99.90;;;;;;5059626;28;20205;-87
2022/02/17 11:58:47;;;;;;;9.83;1.33;;;6.40;99.90;;;;;;5059872;28;20181;-86
2022/02/17 12:01:25;;;;;;;5.50;1.27;;;6.50;99.90;;;;;;5059747;28;20251;-91
2022/02/17 12:04:11;;;;;;;7.17;1.70;;;6.70;99.90;;;;;;5059816;28;20180;-91
2022/02/17 12:06:45;;;;;;;10.60;1.90;;;6.80;99.90;;;;;;5078020;28;20560;-91
2022/02/17 12:09:41;;;;;;;9.67;1.60;;;6.80;99.90;;;;;;5059549;28;20678;-85
2022/02/17 12:12:09;;;;;;;10.27;2.00;;;6.80;99.90;;;;;;5070774;28;20620;-88
2022/02/17 12:14:56;;;;;;;10.27;2.00;;;6.90;99.90;;;;;;5077361;28;20177;-88
2022/02/17 12:17:29;;;;;;;16.23;1.90;;;6.90;99.90;;;;;;5059149;28;20212;-89
2022/02/17 12:20:12;;;;;;;12.47;2.50;;;7.00;99.90;;;;;;5059306;28;20175;-86
2022/02/17 12:23:08;;;;;;;10.67;2.00;;;7.00;99.90;;;;;;5077126;28;20197;-88
2022/02/17 12:25:43;;;;;;;14.30;2.43;;;7.10;99.90;;;;;;5059004;28;20528;-91
2022/02/17 12:28:14;;;;;;;12.87;2.13;;;7.20;99.90;;;;;;5059072;28;20168;-90
2022/02/17 12:30:42;;;;;;;11.33;2.23;;;7.30;99.90;;;;;;5059119;28;20169;-86
2022/02/17 12:33:17;;;;;;;11.97;1.90;;;7.40;99.90;;;;;;5076921;28;20599;-88
2022/02/17 12:35:57;;;;;;;9.83;1.90;;;7.60;99.90;;;;;;5076815;28;20161;-88
2022/02/17 12:38:25;;;;;;;8.23;2.10;;;7.90;99.90;;;;;;5059172;28;20169;-92
2022/02/17 12:40:51;;;;;;;16.37;2.20;;;8.10;99.90;;;;;;5076566;28;20232;-82
2022/02/17 12:43:26;;;;;;;13.07;2.50;;;8.40;99.90;;;;;;5057461;28;20180;-87
2022/02/17 12:45:53;;;;;;;11.40;2.23;;;8.50;99.90;;;;;;5058749;28;20172;-88
2022/02/17 12:48:19;;;;;;;8.67;1.67;;;8.50;99.90;;;;;;5076509;28;20509;-88
2022/02/17 12:50:45;;;;;;;10.43;1.80;;;8.50;99.90;;;;;;5076724;28;20161;-83
2022/02/17 12:53:11;;;;;;;11.30;2.23;;;8.70;99.90;;;;;;5058895;28;20518;-87
2022/02/17 12:55:45;;;;;;;14.63;2.17;;;8.70;99.90;;;;;;5076019;28;20178;-86